createdAt,value
2023-05-24T00:02:14.090Z,3.88
2023-05-24T00:04:41.891Z,3.55
2023-05-24T00:07:08.534Z,3.70
2023-05-24T00:09:35.017Z,3.30
2023-05-24T00:12:01.587Z,4.07
2023-05-24T00:14:28.084Z,3.90
2023-05-24T00:16:54.657Z,3.10
2023-05-24T00:19:22.434Z,3.55
2023-05-24T00:21:49.120Z,4.00
2023-05-24T00:24:17.045Z,3.97
2023-05-24T00:26:43.836Z,4.20
2023-05-24T00:29:10.480Z,4.43
2023-05-24T00:31:36.981Z,3.63
2023-05-24T00:34:03.601Z,4.67
2023-05-24T00:36:30.114Z,3.75
2023-05-24T00:38:56.594Z,4.00
2023-05-24T00:41:23.108Z,4.15
2023-05-24T00:43:49.535Z,3.10
2023-05-24T00:46:22.388Z,3.88
2023-05-24T00:48:51.086Z,3.70
2023-05-24T00:51:18.104Z,3.30
2023-05-24T00:53:48.905Z,4.38
2023-05-24T00:56:16.801Z,3.90
2023-05-24T00:58:43.970Z,4.72
2023-05-24T01:01:11.064Z,3.75
2023-05-24T01:06:08.036Z,3.72
2023-05-24T01:08:40.570Z,4.82
2023-05-24T01:11:26.481Z,5.18
2023-05-24T01:14:10.801Z,4.75
2023-05-24T01:16:51.656Z,4.20
2023-05-24T01:19:49.740Z,4.15
2023-05-24T01:22:40.212Z,3.75
2023-05-24T01:25:17.068Z,3.97
2023-05-24T01:27:44.434Z,4.72
2023-05-24T01:30:12.128Z,4.68
2023-05-24T01:32:38.888Z,4.43
2023-05-24T01:35:06.138Z,4.82
2023-05-24T01:37:32.591Z,4.40
2023-05-24T01:39:59.678Z,4.72
2023-05-24T01:42:29.554Z,4.28
2023-05-24T01:45:22.652Z,4.40
2023-05-24T01:47:55.478Z,4.55
2023-05-24T01:50:45.520Z,5.47
2023-05-24T01:53:18.000Z,5.00
2023-05-24T01:55:48.014Z,4.47
2023-05-24T01:58:17.436Z,4.45
2023-05-24T02:00:46.017Z,6.60
2023-05-24T02:03:15.995Z,5.00
2023-05-24T02:05:44.404Z,5.53
2023-05-24T02:08:11.335Z,6.03
2023-05-24T02:10:39.615Z,5.05
2023-05-24T02:13:07.766Z,4.68
2023-05-24T02:15:35.366Z,6.00
2023-05-24T02:18:02.150Z,5.25
2023-05-24T02:20:36.656Z,5.90
2023-05-24T02:23:04.442Z,5.28
2023-05-24T02:25:31.686Z,5.72
2023-05-24T02:28:01.668Z,5.28
2023-05-24T02:30:28.481Z,5.13
2023-05-24T02:32:54.994Z,5.18
2023-05-24T02:35:21.598Z,5.38
2023-05-24T02:37:48.113Z,5.30
2023-05-24T02:40:14.642Z,5.43
2023-05-24T02:42:41.132Z,5.03
2023-05-24T02:45:08.054Z,6.23
2023-05-24T02:47:34.573Z,5.80
2023-05-24T02:50:01.230Z,5.82
2023-05-24T02:52:29.667Z,5.90
2023-05-24T02:54:56.267Z,5.72
2023-05-24T02:57:22.879Z,4.80
2023-05-24T02:59:49.304Z,4.73
2023-05-24T03:02:15.822Z,4.93
2023-05-24T03:04:42.304Z,5.60
2023-05-24T03:07:08.772Z,5.72
2023-05-24T03:09:35.489Z,5.50
2023-05-24T03:12:01.968Z,6.43
2023-05-24T03:14:28.428Z,5.38
2023-05-24T03:16:54.901Z,5.07
2023-05-24T03:19:21.658Z,5.85
2023-05-24T03:21:48.224Z,5.82
2023-05-24T03:24:14.809Z,5.75
2023-05-24T03:26:41.304Z,5.53
2023-05-24T03:29:19.065Z,5.25
2023-05-24T03:31:45.529Z,5.60
2023-05-24T03:34:12.014Z,4.47
2023-05-24T03:36:38.456Z,5.32
2023-05-24T03:39:06.282Z,5.55
2023-05-24T03:41:32.754Z,5.60
2023-05-24T03:44:00.199Z,5.40
2023-05-24T03:46:26.713Z,6.55
2023-05-24T03:48:53.327Z,6.30
2023-05-24T03:51:20.239Z,6.07
2023-05-24T03:53:46.793Z,5.97
2023-05-24T03:56:19.269Z,5.22
2023-05-24T03:58:45.762Z,5.47
2023-05-24T04:01:21.991Z,6.05
2023-05-24T04:03:56.407Z,6.10
2023-05-24T04:06:28.884Z,6.22
2023-05-24T04:08:57.349Z,7.78
2023-05-24T04:11:28.211Z,7.45
2023-05-24T04:13:57.679Z,6.57
2023-05-24T04:16:26.398Z,6.53
2023-05-24T04:18:55.637Z,6.95
2023-05-24T04:21:23.967Z,6.85
2023-05-24T04:23:52.525Z,6.38
2023-05-24T04:26:22.688Z,5.88
2023-05-24T04:28:49.167Z,6.18
2023-05-24T04:31:17.936Z,6.22
2023-05-24T04:33:44.488Z,6.38
2023-05-24T04:36:11.613Z,6.72
2023-05-24T04:38:39.633Z,6.20
2023-05-24T04:41:08.360Z,6.85
2023-05-24T04:43:35.124Z,6.72
2023-05-24T04:46:02.931Z,5.97
2023-05-24T04:48:29.433Z,5.88
2023-05-24T04:50:58.384Z,6.38
2023-05-24T04:53:25.722Z,7.85
2023-05-24T04:55:53.153Z,6.85
2023-05-24T04:58:19.716Z,6.20
2023-05-24T05:00:46.266Z,6.53
2023-05-24T05:03:12.891Z,7.25
2023-05-24T05:05:39.804Z,5.80
2023-05-24T05:08:09.754Z,6.28
2023-05-24T05:10:36.716Z,6.15
2023-05-24T05:13:11.119Z,6.55
2023-05-24T05:15:37.612Z,6.53
2023-05-24T05:18:05.159Z,5.95
2023-05-24T05:22:58.202Z,6.28
2023-05-24T05:25:26.713Z,5.95
2023-05-24T05:27:54.422Z,6.22
2023-05-24T05:30:21.043Z,5.88
2023-05-24T05:32:48.607Z,5.43
2023-05-24T05:35:18.386Z,6.15
2023-05-24T05:37:44.894Z,5.97
2023-05-24T05:40:11.958Z,5.65
2023-05-24T05:42:38.392Z,6.20
2023-05-24T05:45:05.505Z,5.80
2023-05-24T05:47:32.030Z,6.53
2023-05-24T05:49:58.514Z,5.70
2023-05-24T05:52:24.917Z,5.57
2023-05-24T05:54:54.360Z,6.22
2023-05-24T05:57:24.266Z,5.68
2023-05-24T05:59:51.116Z,5.40
2023-05-24T06:02:19.114Z,5.20
2023-05-24T06:04:47.033Z,4.70
2023-05-24T06:07:14.696Z,5.20
2023-05-24T06:09:41.289Z,5.25
2023-05-24T06:12:08.001Z,5.43
2023-05-24T06:14:38.257Z,5.03
2023-05-24T06:17:05.899Z,5.75
2023-05-24T06:19:33.146Z,4.47
2023-05-24T06:22:00.042Z,5.38
2023-05-24T06:24:28.503Z,5.15
2023-05-24T06:27:05.303Z,4.88
2023-05-24T06:29:32.209Z,4.97
2023-05-24T06:31:58.899Z,5.80
2023-05-24T06:34:25.722Z,5.10
2023-05-24T06:36:53.007Z,4.95
2023-05-24T06:41:53.773Z,4.40
2023-05-24T06:44:25.216Z,4.47
2023-05-24T06:46:52.005Z,4.55
2023-05-24T06:49:18.686Z,4.95
2023-05-24T06:51:49.027Z,4.55
2023-05-24T06:54:15.703Z,4.43
2023-05-24T06:56:42.242Z,5.20
2023-05-24T06:59:11.085Z,4.40
2023-05-24T07:01:42.854Z,4.85
2023-05-24T07:04:10.077Z,4.50
2023-05-24T07:06:39.591Z,5.13
2023-05-24T07:09:07.236Z,4.40
2023-05-24T07:11:35.585Z,4.07
2023-05-24T07:14:03.659Z,4.63
2023-05-24T07:16:30.426Z,4.55
2023-05-24T07:18:58.433Z,3.92
2023-05-24T07:21:25.081Z,3.85
2023-05-24T07:23:52.078Z,3.70
2023-05-24T07:26:21.867Z,3.30
2023-05-24T07:28:48.475Z,4.05
2023-05-24T07:31:15.329Z,3.85
2023-05-24T07:33:42.913Z,3.53
2023-05-24T07:36:09.688Z,3.55
2023-05-24T07:38:36.402Z,4.00
2023-05-24T07:41:14.933Z,3.92
2023-05-24T07:43:41.419Z,4.93
2023-05-24T07:46:08.332Z,3.93
2023-05-24T07:48:34.922Z,4.05
2023-05-24T07:51:01.594Z,3.97
2023-05-24T07:53:28.284Z,3.58
2023-05-24T07:55:55.276Z,3.78
2023-05-24T07:58:22.139Z,3.83
2023-05-24T08:00:48.842Z,4.22
2023-05-24T08:03:25.137Z,4.13
2023-05-24T08:05:52.425Z,3.85
2023-05-24T08:08:19.570Z,4.65
2023-05-24T08:10:48.264Z,5.18
2023-05-24T08:13:14.791Z,4.03
2023-05-24T08:15:41.582Z,3.70
2023-05-24T08:18:09.484Z,4.18
2023-05-24T08:20:38.931Z,4.40
2023-05-24T08:23:13.912Z,3.70
2023-05-24T08:25:41.198Z,4.85
2023-05-24T08:28:08.601Z,3.88
2023-05-24T08:33:01.906Z,4.45
2023-05-24T08:35:28.653Z,3.75
2023-05-24T08:37:57.188Z,4.40
2023-05-24T08:40:27.998Z,3.92
2023-05-24T08:42:56.495Z,4.65
2023-05-24T08:45:26.266Z,3.80
2023-05-24T08:47:55.963Z,3.40
2023-05-24T08:50:22.860Z,3.53
2023-05-24T08:52:50.309Z,3.30
2023-05-24T08:55:17.662Z,2.92
2023-05-24T08:57:45.855Z,2.97
2023-05-24T09:00:13.271Z,3.20
2023-05-24T09:02:43.046Z,3.00
2023-05-24T09:05:16.902Z,3.40
2023-05-24T09:07:50.146Z,3.42
2023-05-24T09:10:20.340Z,3.35
2023-05-24T09:12:51.650Z,3.10
2023-05-24T09:15:19.208Z,4.57
2023-05-24T09:17:46.665Z,3.60
2023-05-24T09:20:13.627Z,3.58
2023-05-24T09:22:43.909Z,3.25
2023-05-24T09:25:14.229Z,3.67
2023-05-24T09:27:50.527Z,4.70
2023-05-24T09:30:17.259Z,4.03
2023-05-24T09:33:10.650Z,3.00
2023-05-24T09:35:42.345Z,4.07
2023-05-24T09:38:18.200Z,4.35
2023-05-24T09:40:45.347Z,3.50
2023-05-24T09:43:11.952Z,3.92
2023-05-24T09:45:44.440Z,3.13
2023-05-24T09:48:17.341Z,3.25
2023-05-24T09:50:47.952Z,3.80
2023-05-24T09:53:18.186Z,3.25
2023-05-24T09:55:45.093Z,3.42
2023-05-24T09:58:13.797Z,3.85
2023-05-24T10:00:41.773Z,3.38
2023-05-24T10:03:11.979Z,3.80
2023-05-24T10:05:42.785Z,3.05
2023-05-24T10:08:10.190Z,3.70
2023-05-24T10:10:37.045Z,3.75
2023-05-24T10:13:04.956Z,3.50
2023-05-24T10:15:31.499Z,3.83
2023-05-24T10:17:58.884Z,4.03
2023-05-24T10:20:25.573Z,3.90
2023-05-24T10:22:55.742Z,3.92
2023-05-24T10:25:27.600Z,3.80
2023-05-24T10:27:57.778Z,4.13
2023-05-24T10:30:42.905Z,3.53
2023-05-24T10:33:13.435Z,3.72
2023-05-24T10:35:41.379Z,3.97
2023-05-24T10:38:08.652Z,4.35
2023-05-24T10:40:42.015Z,4.63
2023-05-24T10:43:09.685Z,3.67
2023-05-24T10:45:41.303Z,3.22
2023-05-24T10:48:16.804Z,3.20
2023-05-24T10:50:45.281Z,3.05
2023-05-24T10:53:18.940Z,3.15
2023-05-24T10:55:58.876Z,3.38
2023-05-24T10:58:48.569Z,4.28
2023-05-24T11:01:29.926Z,3.33
2023-05-24T11:04:06.945Z,3.65
2023-05-24T11:07:01.669Z,4.43
2023-05-24T11:09:28.240Z,3.42
2023-05-24T11:12:02.315Z,3.70
2023-05-24T11:14:30.853Z,3.13
2023-05-24T11:17:00.256Z,4.07
2023-05-24T11:19:47.140Z,3.45
2023-05-24T11:22:17.868Z,3.33
2023-05-24T11:24:45.091Z,3.00
2023-05-24T11:29:47.467Z,3.20
2023-05-24T11:32:21.112Z,3.17
2023-05-24T11:34:51.099Z,3.10
2023-05-24T11:37:24.040Z,3.75
2023-05-24T11:42:23.429Z,3.75
2023-05-24T11:44:50.437Z,3.45
2023-05-24T11:47:20.924Z,3.08
2023-05-24T11:49:50.753Z,4.03
2023-05-24T11:52:17.264Z,3.40
2023-05-24T11:54:49.965Z,3.00
2023-05-24T11:57:21.774Z,3.00
2023-05-24T11:59:48.370Z,3.47
2023-05-24T12:02:14.818Z,3.70
2023-05-24T12:04:41.446Z,2.95
2023-05-24T12:07:11.982Z,3.78
2023-05-24T12:09:38.526Z,4.07
2023-05-24T12:12:07.282Z,3.42
2023-05-24T12:14:36.216Z,4.30
2023-05-24T12:17:17.108Z,2.85
2023-05-24T12:19:43.802Z,3.60
2023-05-24T12:22:10.693Z,3.20
2023-05-24T12:24:37.575Z,3.25
2023-05-24T12:27:10.279Z,3.30
2023-05-24T12:29:40.320Z,3.30
2023-05-24T12:32:12.653Z,3.00
2023-05-24T12:34:44.057Z,3.53
2023-05-24T12:37:12.716Z,3.88
2023-05-24T12:39:42.431Z,3.60
2023-05-24T12:42:14.672Z,3.70
2023-05-24T12:44:44.980Z,3.47
2023-05-24T12:47:12.180Z,2.97
2023-05-24T12:49:38.748Z,2.95
2023-05-24T12:52:06.814Z,3.05
2023-05-24T12:54:33.618Z,2.85
2023-05-24T12:57:04.392Z,3.22
2023-05-24T12:59:31.095Z,2.60
2023-05-24T13:04:30.499Z,3.00
2023-05-24T13:06:57.130Z,3.20
2023-05-24T13:11:52.225Z,2.83
2023-05-24T13:14:19.799Z,2.45
2023-05-24T13:16:47.019Z,2.60
2023-05-24T13:19:13.615Z,2.85
2023-05-24T13:21:41.673Z,2.88
2023-05-24T13:24:08.656Z,2.40
2023-05-24T13:26:37.903Z,2.42
2023-05-24T13:31:37.418Z,3.08
2023-05-24T13:34:04.601Z,3.17
2023-05-24T13:36:31.645Z,2.85
2023-05-24T13:39:14.957Z,2.72
2023-05-24T13:41:44.744Z,3.03
2023-05-24T13:44:15.716Z,2.95
2023-05-24T13:46:43.051Z,3.42
2023-05-24T13:49:16.010Z,2.90
2023-05-24T13:51:42.533Z,2.90
2023-05-24T13:54:09.142Z,3.22
2023-05-24T13:56:36.469Z,3.13
2023-05-24T13:59:04.474Z,2.72
2023-05-24T14:01:33.472Z,2.95
2023-05-24T14:04:01.364Z,2.85
2023-05-24T14:06:33.784Z,2.90
2023-05-24T14:09:00.547Z,3.13
2023-05-24T14:11:31.274Z,3.13
2023-05-24T14:16:32.944Z,3.53
2023-05-24T14:18:59.621Z,3.72
2023-05-24T14:21:27.180Z,3.13
2023-05-24T14:23:54.142Z,3.45
2023-05-24T14:28:53.651Z,3.40
2023-05-24T14:31:23.324Z,3.53
2023-05-24T14:33:49.937Z,3.05
2023-05-24T14:36:17.642Z,3.90
2023-05-24T14:38:44.341Z,3.75
2023-05-24T14:41:11.133Z,3.97
2023-05-24T14:43:37.924Z,3.75
2023-05-24T14:46:04.694Z,3.42
2023-05-24T14:48:31.200Z,3.22
2023-05-24T14:51:09.127Z,3.97
2023-05-24T14:53:45.759Z,3.03
2023-05-24T14:56:14.048Z,3.20
2023-05-24T14:58:41.494Z,2.88
2023-05-24T15:01:08.226Z,3.15
2023-05-24T15:03:35.676Z,3.08
2023-05-24T15:06:02.621Z,3.63
2023-05-24T15:10:58.096Z,3.13
2023-05-24T15:13:26.214Z,3.28
2023-05-24T15:15:56.612Z,3.58
2023-05-24T15:18:25.648Z,2.95
2023-05-24T15:20:52.363Z,3.15
2023-05-24T15:23:21.405Z,3.28
2023-05-24T15:25:48.389Z,3.28
2023-05-24T15:28:18.485Z,2.85
2023-05-24T15:30:46.184Z,2.85
2023-05-24T15:33:14.141Z,3.03
2023-05-24T15:35:45.976Z,2.90
2023-05-24T15:38:12.743Z,3.20
2023-05-24T15:40:43.564Z,3.38
2023-05-24T15:43:20.026Z,3.17
2023-05-24T15:45:48.184Z,3.77
2023-05-24T15:48:18.814Z,3.05
2023-05-24T15:51:25.799Z,3.00
2023-05-24T15:53:39.917Z,2.92
2023-05-24T15:56:06.714Z,3.67
2023-05-24T16:01:03.883Z,3.60
2023-05-24T16:03:30.483Z,3.65
2023-05-24T16:05:59.424Z,3.13
2023-05-24T16:08:28.424Z,2.92
2023-05-24T16:10:57.091Z,2.60
2023-05-24T16:13:24.613Z,3.10
2023-05-24T16:15:52.022Z,3.35
2023-05-24T16:18:22.348Z,2.60
2023-05-24T16:20:52.513Z,2.80
2023-05-24T16:23:19.510Z,3.30
2023-05-24T16:25:46.385Z,3.50
2023-05-24T16:28:12.877Z,3.40
2023-05-24T16:33:06.050Z,2.95
2023-05-24T16:35:33.715Z,2.85
2023-05-24T16:38:00.303Z,2.80
2023-05-24T16:45:25.544Z,3.15
2023-05-24T16:47:59.139Z,3.15
2023-05-24T16:50:31.950Z,3.10
2023-05-24T16:53:03.315Z,3.30
2023-05-24T16:55:31.401Z,3.70
2023-05-24T16:57:58.851Z,3.05
2023-05-24T17:00:25.291Z,3.97
2023-05-24T17:02:54.710Z,3.42
2023-05-24T17:05:21.519Z,3.50
2023-05-24T17:07:47.988Z,3.30
2023-05-24T17:10:14.450Z,3.42
2023-05-24T17:12:42.374Z,3.08
2023-05-24T17:15:09.437Z,3.10
2023-05-24T17:17:38.387Z,3.15
2023-05-24T17:20:06.816Z,3.30
2023-05-24T17:22:33.468Z,3.28
2023-05-24T17:24:59.955Z,3.20
2023-05-24T17:27:26.789Z,3.67
2023-05-24T17:29:56.013Z,3.78
2023-05-24T17:32:25.785Z,3.55
2023-05-24T17:34:52.382Z,3.45
2023-05-24T17:37:18.962Z,3.50
2023-05-24T17:39:45.429Z,2.75
2023-05-24T17:42:12.079Z,3.15
2023-05-24T17:44:40.591Z,3.15
2023-05-24T17:47:07.073Z,3.58
2023-05-24T17:49:33.558Z,6.47
2023-05-24T17:52:00.926Z,4.82
2023-05-24T17:54:34.748Z,3.70
2023-05-24T17:57:02.977Z,3.33
2023-05-24T17:59:29.557Z,3.35
2023-05-24T18:01:56.126Z,3.63
2023-05-24T18:04:22.618Z,3.05
2023-05-24T18:06:52.344Z,3.45
2023-05-24T18:09:18.935Z,3.45
2023-05-24T18:11:45.807Z,3.08
2023-05-24T18:14:12.618Z,2.58
2023-05-24T18:16:41.282Z,3.50
2023-05-24T18:19:21.177Z,2.55
2023-05-24T18:21:49.293Z,2.95
2023-05-24T18:24:16.043Z,3.40
2023-05-24T18:26:43.097Z,3.35
2023-05-24T18:29:13.319Z,3.05
2023-05-24T18:31:40.869Z,3.05
2023-05-24T18:34:07.730Z,3.20
2023-05-24T18:36:37.196Z,2.97
2023-05-24T18:39:04.271Z,3.00
2023-05-24T18:41:31.740Z,3.22
2023-05-24T18:43:58.907Z,3.13
2023-05-24T18:48:55.192Z,3.25
2023-05-24T18:51:21.663Z,3.15
2023-05-24T18:53:50.486Z,3.38
2023-05-24T18:56:17.083Z,2.95
2023-05-24T18:58:46.118Z,3.63
2023-05-24T19:01:13.530Z,3.33
2023-05-24T19:03:41.766Z,2.85
2023-05-24T19:06:09.313Z,3.28
2023-05-24T19:08:36.085Z,3.03
2023-05-24T19:11:02.506Z,3.10
2023-05-24T19:13:29.048Z,3.08
2023-05-24T19:15:57.084Z,2.70
2023-05-24T19:18:23.663Z,3.20
2023-05-24T19:20:50.295Z,3.08
2023-05-24T19:23:17.172Z,3.17
2023-05-24T19:25:47.864Z,2.95
2023-05-24T19:28:14.320Z,3.13
2023-05-24T19:30:40.835Z,3.40
2023-05-24T19:33:08.391Z,2.90
2023-05-24T19:35:36.887Z,3.05
2023-05-24T19:38:17.594Z,3.35
2023-05-24T19:40:44.272Z,3.78
2023-05-24T19:43:10.824Z,3.30
2023-05-24T19:45:37.366Z,3.42
2023-05-24T19:48:05.045Z,2.88
2023-05-24T19:50:31.674Z,3.65
2023-05-24T19:52:58.225Z,3.10
2023-05-24T19:55:29.948Z,2.72
2023-05-24T19:57:59.920Z,3.25
2023-05-24T20:00:32.603Z,3.00
2023-05-24T20:02:59.287Z,3.25
2023-05-24T20:05:35.187Z,3.75
2023-05-24T20:08:02.979Z,2.90
2023-05-24T20:10:31.857Z,3.30
2023-05-24T20:12:59.099Z,2.95
2023-05-24T20:15:28.702Z,3.08
2023-05-24T20:17:55.228Z,3.63
2023-05-24T20:20:21.822Z,4.10
2023-05-24T20:22:48.310Z,3.78
2023-05-24T20:25:15.088Z,3.20
2023-05-24T20:27:42.615Z,3.88
2023-05-24T20:30:12.052Z,3.90
2023-05-24T20:32:40.951Z,3.65
2023-05-24T20:35:14.541Z,3.42
2023-05-24T20:37:41.452Z,4.15
2023-05-24T20:40:08.442Z,3.88
2023-05-24T20:42:35.562Z,4.07
2023-05-24T20:45:02.891Z,4.03
2023-05-24T20:49:57.102Z,3.90
2023-05-24T20:52:23.563Z,3.97
2023-05-24T20:54:50.070Z,3.70
2023-05-24T20:57:16.513Z,3.87
2023-05-24T20:59:43.203Z,3.45
2023-05-24T21:02:09.704Z,3.78
2023-05-24T21:04:36.195Z,3.25
2023-05-24T21:07:02.864Z,4.37
2023-05-24T21:09:29.311Z,3.65
2023-05-24T21:11:56.110Z,3.50
2023-05-24T21:14:22.610Z,3.60
2023-05-24T21:16:49.107Z,3.53
2023-05-24T21:19:16.579Z,3.70
2023-05-24T21:21:43.168Z,3.90
2023-05-24T21:24:09.730Z,3.35
2023-05-24T21:26:36.223Z,3.95
2023-05-24T21:29:02.763Z,3.70
2023-05-24T21:31:30.200Z,3.77
2023-05-24T21:33:56.865Z,3.13
2023-05-24T21:36:23.395Z,3.23
2023-05-24T21:38:49.924Z,3.57
2023-05-24T21:41:16.512Z,3.60
2023-05-24T21:43:42.976Z,3.80
2023-05-24T21:46:09.501Z,3.60
2023-05-24T21:48:36.011Z,3.87
2023-05-24T21:51:02.473Z,4.03
2023-05-24T21:53:28.900Z,4.00
2023-05-24T21:55:55.376Z,4.47
2023-05-24T21:58:21.848Z,3.97
2023-05-24T22:00:50.977Z,4.43
2023-05-24T22:03:17.554Z,4.88
2023-05-24T22:05:44.527Z,3.75
2023-05-24T22:08:11.777Z,4.53
2023-05-24T22:10:38.304Z,6.22
2023-05-24T22:13:04.735Z,8.63
2023-05-24T22:15:32.210Z,9.27
2023-05-24T22:20:28.098Z,7.97
2023-05-24T22:22:54.543Z,6.07
2023-05-24T22:25:21.034Z,4.88
2023-05-24T22:27:48.834Z,4.45
2023-05-24T22:30:16.279Z,4.82
2023-05-24T22:35:10.081Z,3.80
2023-05-24T22:37:36.793Z,4.47
2023-05-24T22:40:07.516Z,5.10
2023-05-24T22:42:34.046Z,5.72
2023-05-24T22:45:00.698Z,4.40
2023-05-24T22:47:28.698Z,5.32
2023-05-24T22:49:55.223Z,4.63
2023-05-24T22:52:22.047Z,3.83
2023-05-24T22:54:48.535Z,3.78
2023-05-24T22:57:15.795Z,4.40
2023-05-24T22:59:42.790Z,4.72
2023-05-24T23:02:09.283Z,4.40
2023-05-24T23:04:35.793Z,5.20
2023-05-24T23:07:02.672Z,4.83
2023-05-24T23:09:33.996Z,4.75
2023-05-24T23:12:07.772Z,4.60
2023-05-24T23:14:38.764Z,4.72
2023-05-24T23:17:06.598Z,4.90
2023-05-24T23:19:33.153Z,4.60
2023-05-24T23:21:59.752Z,5.80
2023-05-24T23:24:26.818Z,5.07
2023-05-24T23:26:55.679Z,5.10
2023-05-24T23:29:22.424Z,5.45
2023-05-24T23:31:48.932Z,5.25
2023-05-24T23:34:15.534Z,4.50
2023-05-24T23:36:41.986Z,5.77
2023-05-24T23:39:10.829Z,4.82
2023-05-24T23:41:37.305Z,4.78
2023-05-24T23:44:03.738Z,5.70
2023-05-24T23:46:30.248Z,5.72
2023-05-24T23:48:56.794Z,5.90
2023-05-24T23:51:23.569Z,5.47
2023-05-24T23:53:49.998Z,5.55
2023-05-24T23:56:16.564Z,5.95
2023-05-24T23:58:43.889Z,5.83
